Terminal Aerodrome Forecast
Issued by NWS

Home | Current Version | Previous Version | Text Only | Print | Product List | Glossary On
Versions: 1 2 3 4 5 6 7 8 9 10 11 12
822
FTUS45 KRIW 120526
TAFCPR
TAF
KCPR 120526Z 1206/1306 24011KT P6SM SCT250
     FM121200 24014KT P6SM SCT250
     FM121400 23020G30KT P6SM SCT250
     FM130100 23015KT P6SM SCT250=

USA.gov is the U.S. government's official web portal to all federal, state and local government web resources and services.